Time;durP1;ratioP1;P1;durP2;ratioP2;P2;SDS_P1;SDS_P2;PMS_P1;PMS_P2;Temp;Humidity;BMP_temperature;BMP_pressure;BME280_temperature;BME280_humidity;BME280_pressure;Samples;Min_cycle;Max_cycle;Signal;HPM_P1;HPM_P2
2023/12/23 00:05:58;;;;;;;0.03;0.00;;;5.60;79.70;;;;;;21062141;28;20039;-50
2023/12/23 00:15:59;;;;;;;0.00;0.00;;;6.30;78.00;;;;;;21034124;28;20036;-49
2023/12/23 00:26:01;;;;;;;0.00;0.00;;;5.50;79.60;;;;;;20937974;28;1391088;-59
2023/12/23 00:36:05;;;;;;;0.00;0.00;;;5.80;79.80;;;;;;20979050;28;20029;-49
2023/12/23 00:46:10;;;;;;;0.30;0.00;;;7.30;75.40;;;;;;20963235;28;20035;-47
2023/12/23 00:56:17;;;;;;;0.00;0.00;;;7.30;75.70;;;;;;20972804;28;20032;-50
2023/12/23 01:06:21;;;;;;;0.00;0.00;;;7.00;74.70;;;;;;20980073;28;20090;-48
2023/12/23 01:16:23;;;;;;;0.00;0.00;;;7.80;74.10;;;;;;20961027;28;20032;-61
2023/12/23 01:26:25;;;;;;;0.00;0.00;;;7.20;74.70;;;;;;21040098;28;20055;-60
2023/12/23 01:36:27;;;;;;;0.00;0.00;;;6.80;74.90;;;;;;21052917;28;20037;-52
2023/12/23 01:46:29;;;;;;;0.00;0.00;;;6.80;75.00;;;;;;21061778;28;20043;-58
2023/12/23 01:56:34;;;;;;;0.20;0.00;;;7.00;74.70;;;;;;21067834;28;20046;-61
2023/12/23 02:06:37;;;;;;;0.00;0.00;;;7.10;75.60;;;;;;21072033;28;20055;-51
2023/12/23 02:16:40;;;;;;;0.00;0.00;;;6.30;76.40;;;;;;21030083;28;20036;-61
2023/12/23 02:26:43;;;;;;;0.00;0.00;;;6.20;77.20;;;;;;21065413;28;20101;-59
2023/12/23 02:36:45;;;;;;;0.00;0.00;;;5.50;79.60;;;;;;21062728;28;20024;-57
2023/12/23 02:46:47;;;;;;;0.00;0.00;;;4.80;82.40;;;;;;21059816;28;20032;-52
2023/12/23 02:56:49;;;;;;;0.00;0.00;;;4.30;83.80;;;;;;21064124;28;20563;-58
2023/12/23 03:06:50;;;;;;;0.00;0.00;;;4.50;84.60;;;;;;21065422;28;20078;-58
2023/12/23 03:16:52;;;;;;;0.10;0.00;;;4.40;83.30;;;;;;21046556;28;20039;-58
2023/12/23 03:26:54;;;;;;;0.00;0.00;;;4.40;85.10;;;;;;21060009;28;20044;-57
2023/12/23 03:36:56;;;;;;;0.00;0.00;;;4.50;85.80;;;;;;21057605;28;20024;-51
2023/12/23 03:46:58;;;;;;;0.00;0.00;;;4.20;87.10;;;;;;21017666;28;20033;-48
2023/12/23 03:56:59;;;;;;;0.00;0.00;;;3.70;88.50;;;;;;20989277;28;20028;-55
2023/12/23 04:07:02;;;;;;;0.00;0.00;;;3.40;90.20;;;;;;20972185;28;20055;-55
2023/12/23 04:17:04;;;;;;;0.73;0.00;;;3.30;90.00;;;;;;20956807;28;20552;-53
2023/12/23 04:27:06;;;;;;;0.10;0.00;;;3.30;89.90;;;;;;20951964;28;20041;-54
2023/12/23 04:37:08;;;;;;;0.00;0.00;;;3.30;90.40;;;;;;20960784;28;20037;-49
2023/12/23 04:47:10;;;;;;;0.03;0.00;;;3.00;90.80;;;;;;20986219;28;20032;-55
2023/12/23 04:57:12;;;;;;;0.00;0.00;;;4.10;86.90;;;;;;20988299;28;20111;-47
2023/12/23 05:07:16;;;;;;;0.00;0.00;;;4.20;87.10;;;;;;20981373;28;20032;-57
2023/12/23 05:17:18;;;;;;;0.00;0.00;;;3.60;89.80;;;;;;20993827;28;20040;-50
2023/12/23 05:27:20;;;;;;;0.00;0.00;;;2.90;91.00;;;;;;20993409;28;20036;-44
2023/12/23 05:37:22;;;;;;;0.00;0.00;;;2.80;91.20;;;;;;20979290;28;20040;-57
2023/12/23 05:47:24;;;;;;;0.10;0.00;;;2.60;91.70;;;;;;20992479;28;20036;-55
2023/12/23 05:57:26;;;;;;;0.00;0.00;;;2.70;91.70;;;;;;20991767;28;20028;-45
2023/12/23 06:07:27;;;;;;;0.00;0.00;;;2.50;91.90;;;;;;20991045;28;20028;-58
2023/12/23 06:17:30;;;;;;;0.00;0.00;;;2.60;91.80;;;;;;20991749;28;20032;-46
2023/12/23 06:27:31;;;;;;;0.03;0.00;;;3.40;90.50;;;;;;20991460;28;20049;-49
2023/12/23 06:37:33;;;;;;;0.00;0.00;;;3.30;90.50;;;;;;20989995;28;20036;-45
2023/12/23 06:47:38;;;;;;;0.00;0.00;;;3.60;89.20;;;;;;20991255;28;20028;-58
2023/12/23 06:57:40;;;;;;;0.00;0.00;;;4.10;88.60;;;;;;20990498;28;20115;-49
2023/12/23 07:07:42;;;;;;;0.32;0.00;;;3.50;90.10;;;;;;20989738;28;20037;-50
2023/12/23 07:17:44;;;;;;;0.00;0.00;;;3.20;90.60;;;;;;20959771;28;20029;-60
2023/12/23 07:27:46;;;;;;;0.00;0.00;;;4.30;87.70;;;;;;20970810;28;20049;-49
2023/12/23 07:37:50;;;;;;;0.00;0.00;;;4.70;87.00;;;;;;20967260;28;20086;-47
2023/12/23 07:47:52;;;;;;;0.00;0.00;;;4.70;87.80;;;;;;20976172;28;20032;-47
2023/12/23 07:57:54;;;;;;;0.00;0.00;;;4.50;89.30;;;;;;20979909;28;20036;-50
2023/12/23 08:07:55;;;;;;;0.00;0.00;;;4.60;89.00;;;;;;20976063;28;20029;-55
2023/12/23 08:17:57;;;;;;;0.10;0.10;;;5.60;86.80;;;;;;20978975;28;20037;-51
2023/12/23 08:27:59;;;;;;;0.65;0.00;;;6.80;84.10;;;;;;20983092;28;20066;-58
2023/12/23 08:38:01;;;;;;;0.30;0.00;;;7.70;83.80;;;;;;20995120;28;20033;-50
2023/12/23 08:48:03;;;;;;;0.00;0.00;;;8.60;78.60;;;;;;20999669;28;20555;-58
2023/12/23 08:58:05;;;;;;;0.00;0.00;;;9.00;77.00;;;;;;20987989;28;20036;-58
2023/12/23 09:08:06;;;;;;;0.00;0.00;;;9.50;74.10;;;;;;20992174;28;20029;-49
2023/12/23 09:18:11;;;;;;;0.00;0.00;;;9.90;73.60;;;;;;20987974;28;20054;-55
2023/12/23 09:28:13;;;;;;;0.85;0.00;;;10.30;74.30;;;;;;20995310;28;20097;-46
2023/12/23 09:38:16;;;;;;;0.00;0.00;;;11.30;73.60;;;;;;20989432;28;20040;-57
2023/12/23 09:48:18;;;;;;;0.00;0.00;;;11.80;72.00;;;;;;21000296;28;20033;-50
2023/12/23 09:58:20;;;;;;;0.00;0.00;;;12.40;70.80;;;;;;20996474;28;20055;-56
2023/12/23 10:08:22;;;;;;;0.63;0.00;;;12.10;70.80;;;;;;20983337;28;20490;-57
2023/12/23 10:18:24;;;;;;;0.00;0.00;;;12.00;73.60;;;;;;20979363;28;20040;-57
2023/12/23 10:28:29;;;;;;;0.00;0.00;;;12.80;70.40;;;;;;20985709;28;20053;-50
2023/12/23 10:38:34;;;;;;;0.00;0.00;;;13.80;68.20;;;;;;20983113;28;20040;-54
2023/12/23 10:48:40;;;;;;;0.10;0.00;;;14.60;65.70;;;;;;20976739;28;20365;-51
2023/12/23 10:58:42;;;;;;;0.00;0.00;;;14.40;66.90;;;;;;20976049;28;20037;-49
2023/12/23 11:08:44;;;;;;;0.00;0.00;;;14.80;65.10;;;;;;20975547;28;20539;-48
2023/12/23 11:18:46;;;;;;;0.00;0.00;;;14.80;67.90;;;;;;20984098;28;20105;-50
2023/12/23 11:28:48;;;;;;;0.00;0.00;;;14.70;65.40;;;;;;20986398;28;20498;-52
2023/12/23 11:38:51;;;;;;;0.00;0.00;;;14.80;67.00;;;;;;20982535;28;20035;-52
2023/12/23 11:48:57;;;;;;;0.10;0.00;;;15.10;66.60;;;;;;20971328;28;20532;-58
2023/12/23 11:59:01;;;;;;;0.00;0.00;;;15.20;64.20;;;;;;20979483;28;20035;-52
2023/12/23 12:09:06;;;;;;;0.10;0.10;;;15.40;64.90;;;;;;20982688;28;20036;-58
2023/12/23 12:19:13;;;;;;;0.10;0.03;;;15.40;64.40;;;;;;20984959;28;20409;-52
2023/12/23 12:29:15;;;;;;;0.10;0.10;;;15.20;65.40;;;;;;20987045;28;20830;-51
2023/12/23 12:39:20;;;;;;;0.00;0.00;;;14.90;66.50;;;;;;20985190;28;20171;-48
2023/12/23 12:49:25;;;;;;;0.20;0.10;;;14.60;65.60;;;;;;20985464;28;20095;-51
2023/12/23 12:59:27;;;;;;;0.20;0.10;;;14.30;67.90;;;;;;20988155;28;20036;-53
2023/12/23 13:09:29;;;;;;;0.30;0.10;;;13.50;67.30;;;;;;20729346;28;20455;-57
2023/12/23 13:19:31;;;;;;;0.08;0.08;;;12.70;69.00;;;;;;20759559;28;20046;-58
2023/12/23 13:29:33;;;;;;;0.20;0.10;;;12.40;71.10;;;;;;20750243;28;20081;-50
2023/12/23 13:39:35;;;;;;;0.52;0.10;;;12.40;70.50;;;;;;20939605;28;20508;-49
2023/12/23 13:49:37;;;;;;;0.10;0.10;;;12.40;70.50;;;;;;20987957;28;20033;-52
2023/12/23 13:59:39;;;;;;;0.15;0.10;;;12.20;71.80;;;;;;20973550;28;20032;-56
2023/12/23 14:09:40;;;;;;;0.52;0.20;;;11.90;72.70;;;;;;20990696;28;20462;-50
2023/12/23 14:19:45;;;;;;;0.30;0.10;;;11.70;71.70;;;;;;21004766;28;20051;-52
2023/12/23 14:29:49;;;;;;;0.10;0.10;;;11.60;69.90;;;;;;20998593;28;20109;-49
2023/12/23 14:39:51;;;;;;;0.20;0.10;;;11.40;71.90;;;;;;21014936;28;20032;-50
2023/12/23 14:49:53;;;;;;;0.40;0.20;;;11.10;70.70;;;;;;20984814;28;20028;-59
2023/12/23 14:59:56;;;;;;;1.45;0.20;;;10.80;72.30;;;;;;20984547;28;20036;-51
2023/12/23 15:09:58;;;;;;;0.20;0.17;;;10.40;72.70;;;;;;20983818;28;20028;-50
2023/12/23 15:19:59;;;;;;;1.95;0.10;;;10.40;71.60;;;;;;20997412;28;20032;-46
2023/12/23 15:30:03;;;;;;;0.00;0.00;;;9.70;73.00;;;;;;20981915;28;20098;-59
2023/12/23 15:40:07;;;;;;;0.30;0.10;;;9.30;69.90;;;;;;20993360;28;20032;-50
2023/12/23 15:50:09;;;;;;;0.13;0.00;;;10.00;67.90;;;;;;20978376;28;20102;-51
2023/12/23 16:00:11;;;;;;;0.20;0.00;;;10.10;65.70;;;;;;20978636;28;20028;-53
2023/12/23 16:10:16;;;;;;;0.20;0.00;;;10.40;64.00;;;;;;20982397;28;20032;-59
2023/12/23 16:20:18;;;;;;;0.10;0.00;;;11.00;61.60;;;;;;20955417;28;20029;-48
2023/12/23 16:30:19;;;;;;;0.00;0.00;;;10.70;60.10;;;;;;21003141;28;20032;-59
2023/12/23 16:40:21;;;;;;;0.52;0.00;;;10.80;59.90;;;;;;21006473;28;20401;-48
2023/12/23 16:50:23;;;;;;;0.10;0.10;;;11.10;57.00;;;;;;21069555;28;20035;-61
2023/12/23 17:00:25;;;;;;;0.10;0.00;;;11.60;56.50;;;;;;21046049;28;20032;-61
2023/12/23 17:10:27;;;;;;;1.15;0.00;;;11.60;54.30;;;;;;21035869;28;20553;-61
2023/12/23 17:20:29;;;;;;;0.00;0.00;;;11.40;54.40;;;;;;21075728;28;20562;-59
2023/12/23 17:30:31;;;;;;;1.85;0.00;;;11.10;53.70;;;;;;20968154;28;20433;-59
2023/12/23 17:40:34;;;;;;;0.00;0.00;;;11.00;53.00;;;;;;20963468;28;20048;-59
2023/12/23 17:50:36;;;;;;;0.10;0.00;;;10.50;52.50;;;;;;20941462;28;20098;-59
2023/12/23 18:00:41;;;;;;;0.00;0.00;;;10.80;53.00;;;;;;21014140;28;20044;-50
2023/12/23 18:10:46;;;;;;;0.10;0.00;;;10.80;51.10;;;;;;21036953;28;20028;-55
2023/12/23 18:20:47;;;;;;;0.10;0.00;;;10.20;54.30;;;;;;21020587;28;20040;-52
2023/12/23 18:30:52;;;;;;;0.00;0.00;;;9.70;53.90;;;;;;21046032;28;20035;-58
2023/12/23 18:40:54;;;;;;;0.00;0.00;;;8.60;56.60;;;;;;21047053;28;20036;-49
2023/12/23 18:50:59;;;;;;;0.00;0.00;;;8.30;55.10;;;;;;21059745;28;20036;-56
2023/12/23 19:01:02;;;;;;;0.82;0.00;;;8.50;58.00;;;;;;21050917;28;20027;-51
2023/12/23 19:11:04;;;;;;;0.15;0.05;;;7.80;59.40;;;;;;21038892;28;20547;-53
2023/12/23 19:21:06;;;;;;;0.38;0.10;;;6.80;62.70;;;;;;21049840;28;20493;-49
2023/12/23 19:31:07;;;;;;;0.28;0.00;;;6.30;61.70;;;;;;21048995;28;20089;-53
2023/12/23 19:41:12;;;;;;;0.17;0.03;;;8.00;57.40;;;;;;21043055;28;20028;-48
2023/12/23 19:51:15;;;;;;;0.10;0.00;;;8.90;54.30;;;;;;21037870;28;20431;-46
2023/12/23 20:01:19;;;;;;;0.05;0.00;;;9.90;53.30;;;;;;21038529;28;20759;-60
2023/12/23 20:11:26;;;;;;;0.00;0.00;;;10.20;51.50;;;;;;21042767;28;20027;-47
2023/12/23 20:21:27;;;;;;;0.15;0.00;;;10.00;55.10;;;;;;21049736;28;20040;-59
2023/12/23 20:31:33;;;;;;;0.05;0.03;;;9.10;52.30;;;;;;21061046;28;20048;-50
2023/12/23 20:41:35;;;;;;;0.00;0.00;;;10.70;49.30;;;;;;21029592;28;21078;-55
2023/12/23 20:51:37;;;;;;;0.15;0.00;;;10.90;48.50;;;;;;21054163;28;20131;-56
2023/12/23 21:01:39;;;;;;;0.50;0.00;;;11.50;47.30;;;;;;21026364;28;20045;-58
2023/12/23 21:11:41;;;;;;;0.13;0.00;;;11.90;45.20;;;;;;21049474;28;20062;-59
2023/12/23 21:21:44;;;;;;;0.10;0.00;;;11.90;45.70;;;;;;21029090;28;20036;-51
2023/12/23 21:31:46;;;;;;;0.20;0.00;;;11.50;45.60;;;;;;21061004;28;20028;-61
2023/12/23 21:41:47;;;;;;;0.03;0.00;;;11.80;45.60;;;;;;21053260;28;20051;-47
2023/12/23 21:51:50;;;;;;;0.00;0.00;;;11.70;45.20;;;;;;21027279;28;20756;-62
2023/12/23 22:01:52;;;;;;;0.03;0.00;;;11.60;44.80;;;;;;21061183;28;20077;-48
2023/12/23 22:11:54;;;;;;;0.05;0.00;;;12.00;44.80;;;;;;21055745;28;20036;-50
2023/12/23 22:21:56;;;;;;;0.20;0.00;;;11.80;45.20;;;;;;21050612;28;20555;-61
2023/12/23 22:31:58;;;;;;;0.00;0.00;;;12.00;44.40;;;;;;21047886;28;20051;-61
2023/12/23 22:42:00;;;;;;;0.08;0.05;;;12.00;43.70;;;;;;21044193;28;20032;-59
2023/12/23 22:52:05;;;;;;;0.00;0.00;;;12.00;43.60;;;;;;21053385;28;20036;-61
2023/12/23 23:02:07;;;;;;;0.00;0.00;;;12.10;43.10;;;;;;21060164;28;20035;-55
2023/12/23 23:12:09;;;;;;;0.05;0.00;;;12.20;44.20;;;;;;21041666;28;20036;-55
2023/12/23 23:22:11;;;;;;;0.05;0.00;;;12.10;44.70;;;;;;21046239;28;20078;-52
2023/12/23 23:32:12;;;;;;;0.10;0.10;;;11.80;43.30;;;;;;21054363;28;20036;-61
2023/12/23 23:42:14;;;;;;;0.00;0.00;;;11.80;43.80;;;;;;21041724;28;20032;-52
2023/12/23 23:52:16;;;;;;;0.30;0.00;;;12.00;42.70;;;;;;21042542;28;20024;-59
